Time;durP1;ratioP1;P1;durP2;ratioP2;P2;SDS_P1;SDS_P2;PMS_P1;PMS_P2;Temp;Humidity;BMP_temperature;BMP_pressure;BME280_temperature;BME280_humidity;BME280_pressure;Samples;Min_cycle;Max_cycle;Signal;HPM_P1;HPM_P2
2021/01/25 00:00:36;;;;;;;143.13;75.17;;;;;;;;;;5052954;28;20199;-89
2021/01/25 00:03:02;;;;;;;130.57;68.00;;;;;;;;;;5034537;28;20261;-89
2021/01/25 00:05:27;;;;;;;139.43;71.87;;;;;;;;;;5052986;28;20167;-88
2021/01/25 00:07:53;;;;;;;124.03;64.77;;;;;;;;;;5052435;28;20187;-89
2021/01/25 00:10:18;;;;;;;187.10;95.90;;;;;;;;;;5052485;28;20202;-89
2021/01/25 00:12:44;;;;;;;204.43;95.23;;;;;;;;;;5052321;28;20171;-89
2021/01/25 00:15:09;;;;;;;163.03;75.47;;;;;;;;;;5034185;28;20647;-88
2021/01/25 00:17:36;;;;;;;170.57;81.07;;;;;;;;;;5052297;28;20175;-89
2021/01/25 00:20:02;;;;;;;183.57;86.27;;;;;;;;;;5052256;28;20194;-89
2021/01/25 00:22:29;;;;;;;164.97;80.40;;;;;;;;;;5052185;28;20636;-88
2021/01/25 00:24:54;;;;;;;167.97;90.13;;;;;;;;;;5035051;28;20179;-89
2021/01/25 00:27:19;;;;;;;175.90;92.93;;;;;;;;;;5052668;28;20660;-89
2021/01/25 00:29:45;;;;;;;161.23;84.60;;;;;;;;;;5052845;28;20183;-89
2021/01/25 00:32:10;;;;;;;164.13;84.43;;;;;;;;;;5034186;28;20176;-89
2021/01/25 00:34:37;;;;;;;162.33;80.43;;;;;;;;;;5034469;28;20179;-89
2021/01/25 00:37:03;;;;;;;158.53;78.90;;;;;;;;;;5052061;28;20191;-89
2021/01/25 00:39:29;;;;;;;140.53;68.83;;;;;;;;;;5052204;28;20652;-88
2021/01/25 00:41:54;;;;;;;132.83;67.53;;;;;;;;;;5034600;28;20314;-89
2021/01/25 00:44:19;;;;;;;122.57;63.97;;;;;;;;;;5051564;28;20180;-89
2021/01/25 00:46:45;;;;;;;100.70;50.97;;;;;;;;;;5051707;28;20182;-89
2021/01/25 00:49:11;;;;;;;98.40;51.70;;;;;;;;;;5034352;28;20175;-89
2021/01/25 00:51:38;;;;;;;83.93;43.60;;;;;;;;;;5034524;28;20619;-91
2021/01/25 00:54:03;;;;;;;72.20;40.10;;;;;;;;;;5052958;28;20178;-90
2021/01/25 00:56:28;;;;;;;71.27;39.03;;;;;;;;;;5051729;28;20254;-89
2021/01/25 00:58:54;;;;;;;65.50;38.33;;;;;;;;;;5034296;28;20211;-89
2021/01/25 01:01:19;;;;;;;66.23;36.47;;;;;;;;;;5051303;28;20182;-89
2021/01/25 01:03:44;;;;;;;64.00;36.47;;;;;;;;;;5051487;28;20171;-89
2021/01/25 01:06:10;;;;;;;62.17;35.00;;;;;;;;;;5051948;28;20174;-89
2021/01/25 01:08:35;;;;;;;65.97;34.67;;;;;;;;;;5051866;28;20176;-89
2021/01/25 01:11:00;;;;;;;60.03;34.60;;;;;;;;;;5017661;28;20183;-89
2021/01/25 01:13:26;;;;;;;66.40;34.97;;;;;;;;;;5052429;28;20191;-89
2021/01/25 01:15:52;;;;;;;61.20;32.93;;;;;;;;;;5033421;28;20184;-89
2021/01/25 01:18:17;;;;;;;58.40;33.10;;;;;;;;;;5033954;28;20728;-89
2021/01/25 01:20:43;;;;;;;62.73;34.10;;;;;;;;;;5033657;28;20183;-89
2021/01/25 01:23:08;;;;;;;65.87;36.13;;;;;;;;;;5034596;28;20761;-89
2021/01/25 01:25:33;;;;;;;67.63;35.87;;;;;;;;;;5034195;28;20180;-88
2021/01/25 01:27:59;;;;;;;59.03;34.57;;;;;;;;;;5034365;28;20608;-89
2021/01/25 01:30:25;;;;;;;61.03;34.97;;;;;;;;;;5051848;28;20635;-90
2021/01/25 01:32:50;;;;;;;58.27;34.10;;;;;;;;;;5033599;28;20226;-89
2021/01/25 01:35:16;;;;;;;68.70;36.90;;;;;;;;;;5034114;28;20593;-90
2021/01/25 01:37:41;;;;;;;68.13;37.50;;;;;;;;;;5052221;28;20259;-89
2021/01/25 01:40:07;;;;;;;62.97;36.47;;;;;;;;;;5052265;28;20256;-89
2021/01/25 01:42:33;;;;;;;61.50;35.93;;;;;;;;;;5052291;28;20168;-89
2021/01/25 01:45:01;;;;;;;67.10;36.47;;;;;;;;;;5052312;28;20170;-89
2021/01/25 01:47:26;;;;;;;68.73;37.37;;;;;;;;;;5052593;28;20199;-89
2021/01/25 01:49:51;;;;;;;69.73;36.90;;;;;;;;;;5034328;28;20190;-89
2021/01/25 01:52:17;;;;;;;64.10;36.63;;;;;;;;;;5051824;28;20168;-88
2021/01/25 01:54:43;;;;;;;69.00;36.30;;;;;;;;;;5051760;28;20366;-89
2021/01/25 01:57:08;;;;;;;63.13;37.27;;;;;;;;;;5033918;28;20724;-88
2021/01/25 01:59:33;;;;;;;111.90;51.93;;;;;;;;;;5051648;28;20275;-88
2021/01/25 02:01:59;;;;;;;163.97;74.33;;;;;;;;;;5033907;28;20225;-88
2021/01/25 02:04:25;;;;;;;149.03;68.03;;;;;;;;;;5051462;28;20207;-88
2021/01/25 02:06:50;;;;;;;179.20;79.80;;;;;;;;;;5051985;28;20164;-88
2021/01/25 02:09:16;;;;;;;191.53;81.03;;;;;;;;;;5051513;28;20333;-88
2021/01/25 02:11:41;;;;;;;215.67;89.30;;;;;;;;;;5051915;28;20168;-89
2021/01/25 02:14:07;;;;;;;281.83;116.50;;;;;;;;;;5051496;28;20168;-88
2021/01/25 02:16:33;;;;;;;198.43;82.07;;;;;;;;;;5054294;28;20635;-89
2021/01/25 02:18:58;;;;;;;180.93;76.07;;;;;;;;;;5054969;28;20199;-89
2021/01/25 02:21:26;;;;;;;191.50;77.87;;;;;;;;;;5055432;28;20306;-89
2021/01/25 02:23:51;;;;;;;185.70;76.87;;;;;;;;;;5055081;28;20250;-88
2021/01/25 02:26:26;;;;;;;169.37;70.83;;;;;;;;;;5054715;28;20541;-89
2021/01/25 02:28:52;;;;;;;126.30;58.90;;;;;;;;;;5054910;28;20175;-88
2021/01/25 02:31:17;;;;;;;120.67;57.20;;;;;;;;;;5037195;28;20187;-88
2021/01/25 02:33:45;;;;;;;111.77;53.80;;;;;;;;;;5054738;28;20254;-89
2021/01/25 02:36:11;;;;;;;111.80;53.23;;;;;;;;;;5054882;28;20604;-89
2021/01/25 02:38:38;;;;;;;116.33;52.47;;;;;;;;;;5055061;28;20219;-89
2021/01/25 02:41:04;;;;;;;115.30;53.20;;;;;;;;;;5055295;28;20171;-89
2021/01/25 02:43:30;;;;;;;106.93;50.73;;;;;;;;;;5036876;28;20168;-89
2021/01/25 02:45:56;;;;;;;111.20;53.33;;;;;;;;;;5054765;28;20226;-89
2021/01/25 02:48:22;;;;;;;164.40;65.97;;;;;;;;;;5036530;28;20259;-89
2021/01/25 02:50:50;;;;;;;169.30;66.40;;;;;;;;;;5054748;28;20279;-90
2021/01/25 02:53:15;;;;;;;136.77;59.90;;;;;;;;;;5054608;28;20168;-90
2021/01/25 02:55:40;;;;;;;149.80;62.30;;;;;;;;;;5054427;28;20198;-88
2021/01/25 02:58:06;;;;;;;145.90;63.07;;;;;;;;;;5054238;28;20238;-89
2021/01/25 03:00:31;;;;;;;126.53;54.60;;;;;;;;;;5053929;28;20179;-89
2021/01/25 03:02:57;;;;;;;109.80;51.33;;;;;;;;;;5053918;28;20203;-89
2021/01/25 03:05:22;;;;;;;96.73;46.50;;;;;;;;;;5054005;28;20176;-88
2021/01/25 03:07:48;;;;;;;74.10;40.50;;;;;;;;;;5054098;28;20217;-89
2021/01/25 03:10:13;;;;;;;74.63;40.23;;;;;;;;;;5054108;28;20184;-89
2021/01/25 03:12:39;;;;;;;74.90;39.63;;;;;;;;;;5036351;28;20251;-90
2021/01/25 03:15:05;;;;;;;76.30;40.37;;;;;;;;;;5035967;28;20535;-90
2021/01/25 03:17:31;;;;;;;73.17;40.83;;;;;;;;;;5054087;28;20172;-90
2021/01/25 03:19:56;;;;;;;96.63;45.83;;;;;;;;;;5053702;28;20563;-89
2021/01/25 03:22:21;;;;;;;103.53;49.77;;;;;;;;;;5053768;28;20278;-89
2021/01/25 03:24:47;;;;;;;100.20;51.20;;;;;;;;;;5036050;28;20262;-89
2021/01/25 03:27:12;;;;;;;91.53;46.37;;;;;;;;;;5054334;28;20172;-89
2021/01/25 03:29:37;;;;;;;77.77;44.77;;;;;;;;;;5053855;28;20206;-89
2021/01/25 03:32:03;;;;;;;86.50;49.50;;;;;;;;;;5036137;28;20583;-90
2021/01/25 03:34:28;;;;;;;83.23;46.90;;;;;;;;;;5053566;28;20178;-89
2021/01/25 03:36:53;;;;;;;94.33;54.10;;;;;;;;;;5035657;28;20516;-89
2021/01/25 03:39:19;;;;;;;83.77;46.97;;;;;;;;;;5053653;28;20207;-89
2021/01/25 03:41:45;;;;;;;86.07;47.50;;;;;;;;;;5053564;28;20214;-89
2021/01/25 03:44:10;;;;;;;78.00;42.47;;;;;;;;;;5054380;28;20164;-89
2021/01/25 03:46:36;;;;;;;77.07;41.67;;;;;;;;;;5060678;28;20191;-88
2021/01/25 03:49:01;;;;;;;73.87;41.37;;;;;;;;;;5078260;28;20162;-88
2021/01/25 03:51:26;;;;;;;70.63;40.40;;;;;;;;;;5067235;28;20247;-89
2021/01/25 03:53:52;;;;;;;68.73;40.20;;;;;;;;;;5060172;28;20620;-88
2021/01/25 03:56:17;;;;;;;68.00;38.20;;;;;;;;;;5053163;28;20172;-89
2021/01/25 03:58:43;;;;;;;65.00;38.03;;;;;;;;;;5053370;28;20231;-89
2021/01/25 04:01:08;;;;;;;63.67;36.40;;;;;;;;;;5052921;28;20241;-89
2021/01/25 04:03:33;;;;;;;65.63;35.80;;;;;;;;;;5053308;28;20596;-89
2021/01/25 04:05:59;;;;;;;62.37;36.13;;;;;;;;;;5052724;28;20273;-89
2021/01/25 04:08:24;;;;;;;58.40;34.50;;;;;;;;;;5052861;28;20175;-88
2021/01/25 04:10:49;;;;;;;60.73;35.20;;;;;;;;;;5052682;28;20614;-88
2021/01/25 04:13:15;;;;;;;66.37;37.97;;;;;;;;;;5053474;28;20176;-89
2021/01/25 04:15:40;;;;;;;65.13;36.77;;;;;;;;;;5052410;28;20176;-88
2021/01/25 04:18:05;;;;;;;66.40;36.17;;;;;;;;;;5052322;28;20200;-89
2021/01/25 04:20:31;;;;;;;62.87;35.67;;;;;;;;;;5034834;28;20225;-89
2021/01/25 04:22:56;;;;;;;69.40;38.57;;;;;;;;;;5052352;28;20223;-89
2021/01/25 04:25:21;;;;;;;66.93;35.93;;;;;;;;;;5052847;28;20172;-89
2021/01/25 04:27:47;;;;;;;67.77;36.97;;;;;;;;;;5052610;28;20508;-88
2021/01/25 04:30:13;;;;;;;62.40;37.33;;;;;;;;;;5052357;28;20172;-88
2021/01/25 04:32:38;;;;;;;68.77;38.20;;;;;;;;;;5052417;28;21124;-88
2021/01/25 04:35:07;;;;;;;66.30;37.80;;;;;;;;;;5052148;28;20171;-88
2021/01/25 04:37:32;;;;;;;64.77;37.03;;;;;;;;;;5052259;28;20175;-88
2021/01/25 04:39:58;;;;;;;72.17;39.10;;;;;;;;;;5051862;28;20200;-88
2021/01/25 04:42:24;;;;;;;94.30;48.97;;;;;;;;;;5052164;28;20180;-88
2021/01/25 04:44:50;;;;;;;101.17;54.27;;;;;;;;;;5051933;28;20174;-89
2021/01/25 04:47:16;;;;;;;101.97;51.50;;;;;;;;;;5052532;28;20743;-89
2021/01/25 04:49:42;;;;;;;105.17;53.00;;;;;;;;;;5052665;28;20253;-89
2021/01/25 04:52:10;;;;;;;106.13;52.20;;;;;;;;;;5051879;28;20174;-89
2021/01/25 04:54:35;;;;;;;106.67;51.00;;;;;;;;;;5052049;28;20183;-89
2021/01/25 04:57:01;;;;;;;106.17;50.83;;;;;;;;;;5052102;28;20175;-89
2021/01/25 04:59:27;;;;;;;98.87;47.23;;;;;;;;;;5051993;28;20286;-89
2021/01/25 05:01:52;;;;;;;121.00;53.33;;;;;;;;;;5034177;28;20182;-88
2021/01/25 05:04:18;;;;;;;131.57;58.53;;;;;;;;;;5052023;28;20588;-89
2021/01/25 05:06:43;;;;;;;126.53;60.33;;;;;;;;;;5051844;28;20338;-89
2021/01/25 05:09:08;;;;;;;131.17;59.70;;;;;;;;;;5052059;28;20199;-89
2021/01/25 05:11:34;;;;;;;119.43;58.23;;;;;;;;;;5055162;28;20171;-89
2021/01/25 05:14:03;;;;;;;120.87;57.50;;;;;;;;;;5069473;28;20175;-89
2021/01/25 05:16:29;;;;;;;114.03;55.13;;;;;;;;;;5067251;28;20171;-91
2021/01/25 05:18:56;;;;;;;99.33;51.67;;;;;;;;;;5053366;28;20195;-90
2021/01/25 05:21:30;;;;;;;89.50;50.03;;;;;;;;;;5052524;28;20237;-90
2021/01/25 05:24:01;;;;;;;96.23;50.83;;;;;;;;;;5052276;28;20293;-88
2021/01/25 05:26:27;;;;;;;94.40;50.10;;;;;;;;;;5051763;28;20643;-89
2021/01/25 05:28:52;;;;;;;95.17;50.07;;;;;;;;;;5051822;28;20211;-89
2021/01/25 05:31:21;;;;;;;88.10;47.33;;;;;;;;;;5033864;28;20172;-88
2021/01/25 05:33:47;;;;;;;90.43;47.80;;;;;;;;;;5051545;28;20176;-88
2021/01/25 05:36:15;;;;;;;94.57;48.60;;;;;;;;;;5051881;28;20172;-89
2021/01/25 05:38:40;;;;;;;85.13;46.67;;;;;;;;;;5052051;28;20558;-89
2021/01/25 05:41:07;;;;;;;81.33;44.33;;;;;;;;;;5051676;28;20176;-89
2021/01/25 05:43:32;;;;;;;86.40;47.00;;;;;;;;;;5033754;28;20612;-89
2021/01/25 05:46:05;;;;;;;82.33;45.43;;;;;;;;;;5051642;28;20168;-88
2021/01/25 05:48:30;;;;;;;79.47;44.07;;;;;;;;;;5051202;28;20258;-88
2021/01/25 05:50:55;;;;;;;83.00;45.43;;;;;;;;;;5052750;28;20691;-89
2021/01/25 05:53:21;;;;;;;89.20;48.30;;;;;;;;;;5055928;28;20719;-90
2021/01/25 05:55:46;;;;;;;90.97;47.23;;;;;;;;;;5055060;28;20635;-88
2021/01/25 05:58:12;;;;;;;88.47;45.83;;;;;;;;;;5054921;28;20290;-88
2021/01/25 06:00:38;;;;;;;80.60;44.37;;;;;;;;;;5054955;28;20176;-89
2021/01/25 06:03:04;;;;;;;76.80;44.23;;;;;;;;;;5037154;28;20198;-88
2021/01/25 06:05:33;;;;;;;84.63;44.77;;;;;;;;;;5054793;28;20535;-88
2021/01/25 06:08:04;;;;;;;128.30;57.90;;;;;;;;;;5055181;28;20175;-88
2021/01/25 06:10:33;;;;;;;160.60;68.10;;;;;;;;;;5037259;28;20601;-88
2021/01/25 06:13:03;;;;;;;159.33;71.00;;;;;;;;;;5054782;28;20176;-88
2021/01/25 06:15:30;;;;;;;154.17;65.53;;;;;;;;;;5054910;28;20259;-88
2021/01/25 06:17:59;;;;;;;159.77;68.63;;;;;;;;;;5055278;28;20652;-89
2021/01/25 06:20:26;;;;;;;151.83;69.77;;;;;;;;;;5055221;28;20255;-89
2021/01/25 06:22:51;;;;;;;151.00;71.00;;;;;;;;;;5054553;28;20224;-89
2021/01/25 06:25:17;;;;;;;161.47;74.00;;;;;;;;;;5055086;28;20584;-89
2021/01/25 06:27:42;;;;;;;153.83;70.47;;;;;;;;;;5054689;28;20175;-89
2021/01/25 06:30:10;;;;;;;133.77;63.53;;;;;;;;;;5036817;28;20211;-89
2021/01/25 06:32:36;;;;;;;141.97;66.37;;;;;;;;;;5054556;28;20171;-89
2021/01/25 06:35:05;;;;;;;125.10;61.07;;;;;;;;;;5054800;28;20523;-89
2021/01/25 06:37:34;;;;;;;133.97;62.03;;;;;;;;;;5036541;28;20191;-89
2021/01/25 06:40:04;;;;;;;117.47;59.07;;;;;;;;;;5054427;28;20203;-88
2021/01/25 06:42:31;;;;;;;119.97;58.43;;;;;;;;;;5054252;28;20275;-88
2021/01/25 06:44:57;;;;;;;109.67;54.13;;;;;;;;;;5054979;28;20964;-89
2021/01/25 06:47:24;;;;;;;103.70;53.30;;;;;;;;;;5053997;28;20260;-88
2021/01/25 06:49:50;;;;;;;96.87;48.03;;;;;;;;;;5054125;28;21122;-89
2021/01/25 06:52:15;;;;;;;95.93;47.60;;;;;;;;;;5054480;28;20168;-88
2021/01/25 06:54:42;;;;;;;89.53;46.17;;;;;;;;;;5054075;28;20516;-88
2021/01/25 06:57:07;;;;;;;80.10;43.23;;;;;;;;;;5054077;28;20172;-89
2021/01/25 06:59:33;;;;;;;74.83;41.53;;;;;;;;;;5054006;28;20199;-88
2021/01/25 07:01:58;;;;;;;69.27;40.23;;;;;;;;;;5053663;28;20306;-88
2021/01/25 07:04:26;;;;;;;75.63;38.13;;;;;;;;;;5053734;28;20251;-89
2021/01/25 07:06:55;;;;;;;73.00;39.90;;;;;;;;;;5054311;28;20364;-89
2021/01/25 07:09:27;;;;;;;61.97;35.37;;;;;;;;;;5053866;28;20192;-89
2021/01/25 07:11:54;;;;;;;63.90;35.43;;;;;;;;;;5053567;28;20274;-89
2021/01/25 07:14:23;;;;;;;59.53;34.57;;;;;;;;;;5054144;28;20198;-89
2021/01/25 07:16:49;;;;;;;59.37;33.67;;;;;;;;;;5053714;28;20285;-89
2021/01/25 07:19:15;;;;;;;68.87;35.70;;;;;;;;;;5053671;28;20203;-89
2021/01/25 07:21:41;;;;;;;75.33;41.37;;;;;;;;;;5053411;28;20750;-89
2021/01/25 07:24:06;;;;;;;87.47;49.07;;;;;;;;;;5053151;28;20228;-89
2021/01/25 07:26:36;;;;;;;98.73;53.50;;;;;;;;;;5035882;28;20639;-89
2021/01/25 07:29:08;;;;;;;118.17;58.97;;;;;;;;;;5035763;28;20267;-88
2021/01/25 07:31:33;;;;;;;120.83;61.80;;;;;;;;;;5053382;28;20266;-87
2021/01/25 07:34:00;;;;;;;104.93;55.90;;;;;;;;;;5054112;28;20699;-89
2021/01/25 07:36:25;;;;;;;90.77;51.73;;;;;;;;;;5035641;28;20211;-89
2021/01/25 07:38:51;;;;;;;69.50;41.43;;;;;;;;;;5053302;28;20231;-88
2021/01/25 07:41:17;;;;;;;72.83;39.87;;;;;;;;;;5054184;28;20255;-88
2021/01/25 07:43:42;;;;;;;71.63;44.67;;;;;;;;;;5070305;28;20175;-88
2021/01/25 07:46:08;;;;;;;74.23;39.83;;;;;;;;;;5059580;28;20237;-90
2021/01/25 07:48:34;;;;;;;49.30;31.27;;;;;;;;;;5035227;28;20180;-90
2021/01/25 07:50:59;;;;;;;49.70;29.47;;;;;;;;;;5053249;28;20638;-89
2021/01/25 07:53:32;;;;;;;49.10;29.33;;;;;;;;;;5053638;28;20176;-89
2021/01/25 07:55:57;;;;;;;46.43;26.57;;;;;;;;;;5053644;28;20195;-88
2021/01/25 07:58:22;;;;;;;46.87;27.00;;;;;;;;;;5044807;28;20309;-89
2021/01/25 08:00:48;;;;;;;43.40;26.33;;;;;;;;;;5028892;28;21020;-89
2021/01/25 08:03:16;;;;;;;44.17;26.90;;;;;;;;;;5018367;28;20195;-89
2021/01/25 08:05:42;;;;;;;45.20;25.20;;;;;;;;;;5015524;28;20263;-90
2021/01/25 08:08:09;;;;;;;47.27;26.50;;;;;;;;;;5032751;28;20600;-88
2021/01/25 08:10:34;;;;;;;43.70;26.77;;;;;;;;;;5048572;28;20291;-89
2021/01/25 08:13:01;;;;;;;50.63;28.90;;;;;;;;;;5032122;28;20315;-89
2021/01/25 08:15:29;;;;;;;81.63;37.93;;;;;;;;;;5032625;28;20264;-90
2021/01/25 08:18:03;;;;;;;71.27;35.30;;;;;;;;;;5015180;28;20180;-89
2021/01/25 08:20:32;;;;;;;73.20;36.87;;;;;;;;;;5033194;28;20183;-90
2021/01/25 08:23:01;;;;;;;74.97;38.60;;;;;;;;;;5032786;28;20810;-89
2021/01/25 08:25:28;;;;;;;87.03;45.60;;;;;;;;;;5014768;28;20275;-88
2021/01/25 08:27:58;;;;;;;57.77;34.73;;;;;;;;;;5014279;28;20540;-88
2021/01/25 08:30:29;;;;;;;57.27;32.87;;;;;;;;;;5032316;28;20164;-88
2021/01/25 08:32:56;;;;;;;49.70;31.57;;;;;;;;;;5032271;28;20161;-88
2021/01/25 08:35:27;;;;;;;48.10;29.37;;;;;;;;;;5032496;28;20183;-88
2021/01/25 08:37:52;;;;;;;51.37;30.97;;;;;;;;;;5032062;28;20168;-88
2021/01/25 08:40:22;;;;;;;72.60;40.00;;;;;;;;;;5032497;28;20173;-89
2021/01/25 08:42:48;;;;;;;110.17;58.83;;;;;;;;;;5031868;28;20176;-89
2021/01/25 08:45:15;;;;;;;90.97;52.67;;;;;;;;;;5032301;28;20179;-88
2021/01/25 08:47:40;;;;;;;58.43;36.43;;;;;;;;;;5031997;28;20248;-90
2021/01/25 08:50:16;;;;;;;63.07;34.57;;;;;;;;;;5014558;28;20287;-87
2021/01/25 08:52:42;;;;;;;67.07;36.27;;;;;;;;;;5039779;28;20183;-88
2021/01/25 08:55:10;;;;;;;51.10;29.63;;;;;;;;;;5052634;28;20176;-88
2021/01/25 08:57:36;;;;;;;54.07;28.07;;;;;;;;;;5052072;28;20266;-86
2021/01/25 09:00:09;;;;;;;72.20;31.53;;;;;;;;;;5052630;28;20203;-87
2021/01/25 09:02:35;;;;;;;69.63;34.37;;;;;;;;;;5052535;28;20555;-86
2021/01/25 09:05:00;;;;;;;62.73;34.53;;;;;;;;;;5052584;28;20181;-87
2021/01/25 09:07:25;;;;;;;56.83;36.93;;;;;;;;;;5052426;28;20179;-87
2021/01/25 09:09:51;;;;;;;139.60;48.00;;;;;;;;;;5052709;28;20194;-88
2021/01/25 09:12:18;;;;;;;93.00;36.73;;;;;;;;;;5052388;28;20202;-87
2021/01/25 09:14:43;;;;;;;59.17;31.20;;;;;;;;;;5052585;28;20262;-88
2021/01/25 09:17:10;;;;;;;53.63;30.13;;;;;;;;;;5052669;28;20215;-87
2021/01/25 09:19:36;;;;;;;69.67;35.70;;;;;;;;;;5052428;28;20206;-88
2021/01/25 09:22:02;;;;;;;69.90;36.50;;;;;;;;;;5033312;28;20178;-88
2021/01/25 09:24:27;;;;;;;71.53;35.90;;;;;;;;;;5035650;28;20195;-88
2021/01/25 09:26:52;;;;;;;65.83;33.10;;;;;;;;;;5056742;28;20172;-88
2021/01/25 09:29:18;;;;;;;44.63;26.27;;;;;;;;;;5039263;28;20211;-87
2021/01/25 09:31:43;;;;;;;79.80;41.00;;;;;;;;;;5056954;28;20546;-89
2021/01/25 09:34:09;;;;;;;49.13;33.60;;;;;;;;;;5056135;28;20233;-88
2021/01/25 09:36:35;;;;;;;96.00;39.30;;;;;;;;;;5055104;28;20176;-87
2021/01/25 09:39:00;;;;;;;75.90;34.83;;;;;;;;;;5054030;28;20295;-88
2021/01/25 09:41:27;;;;;;;64.13;30.20;;;;;;;;;;5055303;28;20321;-88
2021/01/25 09:43:52;;;;;;;54.20;28.43;;;;;;;;;;5054965;28;20175;-88
2021/01/25 09:46:18;;;;;;;57.13;29.97;;;;;;;;;;5054481;28;20642;-87
2021/01/25 09:48:43;;;;;;;52.63;27.37;;;;;;;;;;5061378;28;20187;-87
2021/01/25 09:51:08;;;;;;;61.57;32.27;;;;;;;;;;5038039;28;20248;-87
2021/01/25 09:53:34;;;;;;;44.90;30.37;;;;;;;;;;5038433;28;20587;-87
2021/01/25 09:55:59;;;;;;;48.17;30.13;;;;;;;;;;5056191;28;20172;-87
2021/01/25 09:58:25;;;;;;;75.40;33.87;;;;;;;;;;5055728;28;20207;-86
2021/01/25 10:00:50;;;;;;;70.17;34.10;;;;;;;;;;5038338;28;20175;-87
2021/01/25 10:03:16;;;;;;;44.30;26.70;;;;;;;;;;5055886;28;20225;-88
2021/01/25 10:05:42;;;;;;;49.37;27.63;;;;;;;;;;5056112;28;20168;-87
2021/01/25 10:08:08;;;;;;;47.60;27.23;;;;;;;;;;5055854;28;20176;-88
2021/01/25 10:10:33;;;;;;;44.83;25.13;;;;;;;;;;5055914;28;20192;-88
2021/01/25 10:12:58;;;;;;;43.50;25.47;;;;;;;;;;5055642;28;20230;-88
2021/01/25 10:15:24;;;;;;;52.00;26.47;;;;;;;;;;5055614;28;20207;-89
2021/01/25 10:17:49;;;;;;;55.10;29.80;;;;;;;;;;5053685;28;20175;-88
2021/01/25 10:20:15;;;;;;;44.83;26.50;;;;;;;;;;5047008;28;20223;-88
2021/01/25 10:22:40;;;;;;;44.57;25.87;;;;;;;;;;5053949;28;20272;-88
2021/01/25 10:25:07;;;;;;;37.47;23.40;;;;;;;;;;5055550;28;20176;-87
2021/01/25 10:27:32;;;;;;;74.60;43.47;;;;;;;;;;5055737;28;20172;-87
2021/01/25 10:29:58;;;;;;;53.67;32.93;;;;;;;;;;5054993;28;20168;-87
2021/01/25 10:32:24;;;;;;;43.37;28.20;;;;;;;;;;5054606;28;20186;-87
2021/01/25 10:34:50;;;;;;;58.57;31.30;;;;;;;;;;5054859;28;20560;-87
2021/01/25 10:37:15;;;;;;;50.77;28.33;;;;;;;;;;5051693;28;20171;-87
2021/01/25 10:39:40;;;;;;;50.10;28.63;;;;;;;;;;5055441;28;20202;-87
2021/01/25 10:42:06;;;;;;;44.77;27.47;;;;;;;;;;5055214;28;20197;-87
2021/01/25 10:44:31;;;;;;;46.57;27.40;;;;;;;;;;5054840;28;20234;-86
2021/01/25 10:46:57;;;;;;;46.77;26.10;;;;;;;;;;5036643;28;20624;-87
2021/01/25 10:49:22;;;;;;;43.03;26.93;;;;;;;;;;5054613;28;20616;-88
2021/01/25 10:51:47;;;;;;;42.67;25.20;;;;;;;;;;5037415;28;20196;-88
2021/01/25 10:54:14;;;;;;;44.13;27.27;;;;;;;;;;5037252;28;20692;-87
2021/01/25 10:56:39;;;;;;;47.80;28.17;;;;;;;;;;5037303;28;20655;-87
2021/01/25 10:59:08;;;;;;;42.73;26.40;;;;;;;;;;5049861;28;20203;-88
2021/01/25 11:01:33;;;;;;;42.03;28.00;;;;;;;;;;5043548;28;20184;-88
2021/01/25 11:03:59;;;;;;;41.93;26.30;;;;;;;;;;5034676;28;20195;-88
2021/01/25 11:06:24;;;;;;;41.27;27.17;;;;;;;;;;5034804;28;20173;-89
2021/01/25 11:08:49;;;;;;;36.80;23.97;;;;;;;;;;5034644;28;20187;-87
2021/01/25 11:11:15;;;;;;;51.07;32.37;;;;;;;;;;5034739;28;20179;-87
2021/01/25 11:13:42;;;;;;;43.37;28.43;;;;;;;;;;5034933;28;20256;-88
2021/01/25 11:16:07;;;;;;;40.07;25.57;;;;;;;;;;5034753;28;20203;-88
2021/01/25 11:18:32;;;;;;;40.10;24.67;;;;;;;;;;5034115;28;20652;-87
2021/01/25 11:20:59;;;;;;;47.77;28.20;;;;;;;;;;5046659;28;20187;-87
2021/01/25 11:23:25;;;;;;;49.80;28.30;;;;;;;;;;5054441;28;20228;-87
2021/01/25 11:25:50;;;;;;;44.27;27.00;;;;;;;;;;5054643;28;20202;-87
2021/01/25 11:28:15;;;;;;;50.63;31.37;;;;;;;;;;5054162;28;20261;-87
2021/01/25 11:30:41;;;;;;;49.37;29.43;;;;;;;;;;5037339;28;20211;-87
2021/01/25 11:33:06;;;;;;;42.33;27.33;;;;;;;;;;5054067;28;20191;-86
2021/01/25 11:35:31;;;;;;;33.93;22.63;;;;;;;;;;5036334;28;20230;-87
2021/01/25 11:37:57;;;;;;;43.10;27.90;;;;;;;;;;5053662;28;20240;-87
2021/01/25 11:40:22;;;;;;;40.13;25.60;;;;;;;;;;5052944;28;20191;-87
2021/01/25 11:42:49;;;;;;;35.93;24.30;;;;;;;;;;5053660;28;20539;-87
2021/01/25 11:45:14;;;;;;;39.20;24.70;;;;;;;;;;5054527;28;20198;-87
2021/01/25 11:47:40;;;;;;;46.03;28.17;;;;;;;;;;5035049;28;20614;-87
2021/01/25 11:50:06;;;;;;;40.10;25.57;;;;;;;;;;5053280;28;20187;-86
2021/01/25 11:52:31;;;;;;;37.17;24.10;;;;;;;;;;5054058;28;20521;-87
2021/01/25 11:54:56;;;;;;;40.30;25.50;;;;;;;;;;5054157;28;20175;-87
2021/01/25 11:57:22;;;;;;;36.13;23.63;;;;;;;;;;5036016;28;20190;-87
2021/01/25 11:59:47;;;;;;;37.67;25.87;;;;;;;;;;5053826;28;20548;-88
2021/01/25 12:02:12;;;;;;;38.23;24.97;;;;;;;;;;5053312;28;20173;-87
2021/01/25 12:04:38;;;;;;;38.90;24.33;;;;;;;;;;5051695;28;20649;-87
2021/01/25 12:07:03;;;;;;;40.10;24.37;;;;;;;;;;5052035;28;20172;-87
2021/01/25 12:09:29;;;;;;;45.70;25.33;;;;;;;;;;5051358;28;20191;-86
2021/01/25 12:11:54;;;;;;;41.13;24.93;;;;;;;;;;5051875;28;20179;-87
2021/01/25 12:14:19;;;;;;;36.00;22.23;;;;;;;;;;5033314;28;20179;-87
2021/01/25 12:16:45;;;;;;;31.30;19.93;;;;;;;;;;5051180;28;20278;-87
2021/01/25 12:19:10;;;;;;;32.00;19.90;;;;;;;;;;5051362;28;20208;-87
2021/01/25 12:21:35;;;;;;;30.80;19.70;;;;;;;;;;5050091;28;20187;-86
2021/01/25 12:24:03;;;;;;;32.23;20.20;;;;;;;;;;5050921;28;20651;-87
2021/01/25 12:26:28;;;;;;;32.47;20.30;;;;;;;;;;5052914;28;20172;-86
2021/01/25 12:28:54;;;;;;;33.87;21.87;;;;;;;;;;5051499;28;20198;-86
2021/01/25 12:31:19;;;;;;;32.47;20.13;;;;;;;;;;5053155;28;20183;-87
2021/01/25 12:33:44;;;;;;;30.60;20.63;;;;;;;;;;5053244;28;20179;-87
2021/01/25 12:36:10;;;;;;;33.03;20.33;;;;;;;;;;5053153;28;20168;-86
2021/01/25 12:38:36;;;;;;;30.23;20.13;;;;;;;;;;5053402;28;20207;-87
2021/01/25 12:41:02;;;;;;;28.10;17.37;;;;;;;;;;5052659;28;20175;-87
2021/01/25 12:43:27;;;;;;;29.73;19.43;;;;;;;;;;5052646;28;20175;-87
2021/01/25 12:45:53;;;;;;;29.40;19.07;;;;;;;;;;5035449;28;20267;-87
2021/01/25 12:48:18;;;;;;;26.00;18.20;;;;;;;;;;5052373;28;20199;-87
2021/01/25 12:50:44;;;;;;;29.40;19.13;;;;;;;;;;5052271;28;20182;-87
2021/01/25 12:53:10;;;;;;;31.10;19.23;;;;;;;;;;5052348;28;20176;-87
2021/01/25 12:55:35;;;;;;;26.53;18.03;;;;;;;;;;5052004;28;20225;-87
2021/01/25 12:58:01;;;;;;;27.97;18.27;;;;;;;;;;5032844;28;20692;-87
2021/01/25 13:00:28;;;;;;;29.03;18.90;;;;;;;;;;5052230;28;20188;-87
2021/01/25 13:02:53;;;;;;;29.93;19.47;;;;;;;;;;5049985;28;20176;-87
2021/01/25 13:05:19;;;;;;;29.20;19.17;;;;;;;;;;5034616;28;20246;-87
2021/01/25 13:07:44;;;;;;;30.77;19.00;;;;;;;;;;5034942;28;20172;-89
2021/01/25 13:10:11;;;;;;;29.07;19.03;;;;;;;;;;5033083;28;20600;-87
2021/01/25 13:12:39;;;;;;;29.40;18.57;;;;;;;;;;5052068;28;20643;-87
2021/01/25 13:15:05;;;;;;;25.10;17.53;;;;;;;;;;5052106;28;20183;-87
2021/01/25 13:17:31;;;;;;;29.03;18.50;;;;;;;;;;5027599;28;20186;-87
2021/01/25 13:19:56;;;;;;;30.57;18.50;;;;;;;;;;5035683;28;20227;-88
2021/01/25 13:22:21;;;;;;;28.73;18.57;;;;;;;;;;5032601;28;20173;-88
2021/01/25 13:24:47;;;;;;;24.90;17.43;;;;;;;;;;5030099;28;20291;-88
2021/01/25 13:27:13;;;;;;;25.13;16.43;;;;;;;;;;5033903;28;20284;-88
2021/01/25 13:29:41;;;;;;;28.03;17.77;;;;;;;;;;5050523;28;20274;-87
2021/01/25 13:32:06;;;;;;;26.53;16.03;;;;;;;;;;5051964;28;20211;-88
2021/01/25 13:34:33;;;;;;;26.03;16.90;;;;;;;;;;5052756;28;20261;-88
2021/01/25 13:36:59;;;;;;;25.93;16.80;;;;;;;;;;5052621;28;20539;-87
2021/01/25 13:39:24;;;;;;;26.03;16.43;;;;;;;;;;5052212;28;20206;-87
2021/01/25 13:41:50;;;;;;;29.50;17.77;;;;;;;;;;5052541;28;20175;-87
2021/01/25 13:44:15;;;;;;;29.97;17.83;;;;;;;;;;5034671;28;20238;-87
2021/01/25 13:46:40;;;;;;;28.77;17.27;;;;;;;;;;5052191;28;20222;-87
2021/01/25 13:49:06;;;;;;;27.40;16.90;;;;;;;;;;5052506;28;20175;-88
2021/01/25 13:51:31;;;;;;;31.73;19.07;;;;;;;;;;5052388;28;20234;-87
2021/01/25 13:53:56;;;;;;;29.97;18.63;;;;;;;;;;5050686;28;20175;-87
2021/01/25 13:56:22;;;;;;;37.47;22.10;;;;;;;;;;5051931;28;20183;-87
2021/01/25 13:58:47;;;;;;;29.97;18.53;;;;;;;;;;5052064;28;20200;-86
2021/01/25 14:01:12;;;;;;;34.13;19.87;;;;;;;;;;5052041;28;20176;-86
2021/01/25 14:03:38;;;;;;;30.97;19.03;;;;;;;;;;5052103;28;20172;-86
2021/01/25 14:06:04;;;;;;;30.83;19.03;;;;;;;;;;5034331;28;20211;-86